KNYG/NYG METAR and TAF weather

Enter ICAO airport designator
Station Type Date Time Source
KNYG METAR 2020/09/25 18:56 UTC NOAA

KNYG 251856Z AUTO 18007KT 10SM CLR 20/17 A3011 RMK AO2 SLP198 T02000167


Station Type Date Time Source
KNYG Decoded METAR 2020/09/25 18:56 UTC NOAA

QUANTICO MARINE CORPS AIRFAC, VA, United States (KNYG) 38-30N 077-18W 3M
Sep 25, 2020 - 02:56 PM EDT / 2020.09.25 1856 UTC
Wind: from the S (180 degrees) at 8 MPH (7 KT):0
Visibility: 10 mile(s):0
Sky conditions: clear
Temperature: 68.0 F (20.0 C)
Dew Point: 62.1 F (16.7 C)
Relative Humidity: 81%
Pressure (altimeter): 30.11 in. Hg (1019 hPa)
ob: KNYG 251856Z AUTO 18007KT 10SM CLR 20/17 A3011 RMK AO2 SLP198 T02000167
cycle: 19

Station Type Date Time Source
KNYG TAF 2020/09/25 15:57 UTC NOAA

TAF TAF KNYG 2515/2615 19006KT 9999 -RA SCT050 BKN090 BKN120 QNH3008INS
FM251900 18006KT 9000 -RA BR SCT020 BKN050 BKN090 QNH3004INS
BECMG 2600/2602 VRB06KT 6000 RA BR BKN020 BKN050 OVC090 QNH2999INS
TEMPO 2602/2608 1600 +RA BR OVC009 T22/2520Z T17/2611Z LAST NO
AMD AFT 2515/ NEXT 2609

Example: see airport list